sensor_id;sensor_type;location;lat;lon;timestamp;P1;durP1;ratioP1;P2;durP2;ratioP2
295;SDS011;132;48.770;9.200;2023-04-15T00:02:12;7.57;;;3.65;;
295;SDS011;132;48.770;9.200;2023-04-15T00:04:47;8.55;;;3.08;;
295;SDS011;132;48.770;9.200;2023-04-15T00:07:13;6.18;;;3.60;;
295;SDS011;132;48.770;9.200;2023-04-15T00:09:41;8.00;;;3.00;;
295;SDS011;132;48.770;9.200;2023-04-15T00:12:07;8.20;;;3.38;;
295;SDS011;132;48.770;9.200;2023-04-15T00:14:34;9.18;;;3.50;;
295;SDS011;132;48.770;9.200;2023-04-15T00:17:02;8.90;;;3.60;;
295;SDS011;132;48.770;9.200;2023-04-15T00:19:29;5.38;;;3.60;;
295;SDS011;132;48.770;9.200;2023-04-15T00:21:56;8.48;;;3.45;;
295;SDS011;132;48.770;9.200;2023-04-15T00:24:23;7.85;;;3.42;;
295;SDS011;132;48.770;9.200;2023-04-15T00:26:50;6.50;;;3.42;;
295;SDS011;132;48.770;9.200;2023-04-15T00:29:16;5.35;;;3.22;;
295;SDS011;132;48.770;9.200;2023-04-15T00:31:43;7.78;;;3.38;;
295;SDS011;132;48.770;9.200;2023-04-15T00:34:10;8.48;;;3.50;;
295;SDS011;132;48.770;9.200;2023-04-15T00:36:37;5.53;;;3.03;;
295;SDS011;132;48.770;9.200;2023-04-15T00:39:04;12.05;;;3.47;;
295;SDS011;132;48.770;9.200;2023-04-15T00:41:31;4.80;;;2.85;;
295;SDS011;132;48.770;9.200;2023-04-15T00:43:59;7.57;;;4.00;;
295;SDS011;132;48.770;9.200;2023-04-15T00:46:27;8.55;;;3.72;;
295;SDS011;132;48.770;9.200;2023-04-15T00:48:56;8.80;;;3.83;;
295;SDS011;132;48.770;9.200;2023-04-15T00:51:22;6.32;;;3.53;;
295;SDS011;132;48.770;9.200;2023-04-15T00:53:49;8.32;;;4.10;;
295;SDS011;132;48.770;9.200;2023-04-15T00:56:17;10.48;;;4.10;;
295;SDS011;132;48.770;9.200;2023-04-15T00:58:50;8.18;;;3.63;;
295;SDS011;132;48.770;9.200;2023-04-15T01:01:19;5.25;;;3.65;;
295;SDS011;132;48.770;9.200;2023-04-15T01:03:48;10.05;;;3.85;;
295;SDS011;132;48.770;9.200;2023-04-15T01:06:16;7.93;;;4.07;;
295;SDS011;132;48.770;9.200;2023-04-15T01:08:44;7.28;;;4.07;;
295;SDS011;132;48.770;9.200;2023-04-15T01:11:11;7.65;;;4.05;;
295;SDS011;132;48.770;9.200;2023-04-15T01:13:39;11.68;;;3.70;;
295;SDS011;132;48.770;9.200;2023-04-15T01:16:06;9.15;;;3.95;;
295;SDS011;132;48.770;9.200;2023-04-15T01:18:34;7.30;;;3.50;;
295;SDS011;132;48.770;9.200;2023-04-15T01:21:03;12.73;;;4.00;;
295;SDS011;132;48.770;9.200;2023-04-15T01:23:31;7.28;;;3.90;;
295;SDS011;132;48.770;9.200;2023-04-15T01:26:01;7.55;;;3.88;;
295;SDS011;132;48.770;9.200;2023-04-15T01:28:28;8.38;;;3.50;;
295;SDS011;132;48.770;9.200;2023-04-15T01:31:10;9.60;;;4.20;;
295;SDS011;132;48.770;9.200;2023-04-15T01:33:38;13.35;;;4.57;;
295;SDS011;132;48.770;9.200;2023-04-15T01:36:25;5.35;;;3.30;;
295;SDS011;132;48.770;9.200;2023-04-15T01:38:53;7.90;;;4.40;;
295;SDS011;132;48.770;9.200;2023-04-15T01:41:25;7.78;;;4.05;;
295;SDS011;132;48.770;9.200;2023-04-15T01:43:54;15.90;;;4.30;;
295;SDS011;132;48.770;9.200;2023-04-15T01:46:22;12.10;;;4.25;;
295;SDS011;132;48.770;9.200;2023-04-15T01:48:50;6.45;;;3.80;;
295;SDS011;132;48.770;9.200;2023-04-15T01:51:19;7.82;;;4.07;;
295;SDS011;132;48.770;9.200;2023-04-15T01:53:50;12.13;;;4.25;;
295;SDS011;132;48.770;9.200;2023-04-15T01:56:18;7.90;;;3.63;;
295;SDS011;132;48.770;9.200;2023-04-15T01:58:47;9.25;;;4.18;;
295;SDS011;132;48.770;9.200;2023-04-15T02:01:16;10.13;;;3.90;;
295;SDS011;132;48.770;9.200;2023-04-15T02:03:45;8.23;;;4.00;;
295;SDS011;132;48.770;9.200;2023-04-15T02:06:15;10.32;;;3.97;;
295;SDS011;132;48.770;9.200;2023-04-15T02:08:44;6.65;;;3.83;;
295;SDS011;132;48.770;9.200;2023-04-15T02:11:12;7.85;;;4.25;;
295;SDS011;132;48.770;9.200;2023-04-15T02:13:40;12.60;;;5.07;;
295;SDS011;132;48.770;9.200;2023-04-15T02:16:16;9.77;;;4.18;;
295;SDS011;132;48.770;9.200;2023-04-15T02:18:45;8.98;;;4.25;;
295;SDS011;132;48.770;9.200;2023-04-15T02:21:13;10.43;;;4.35;;
295;SDS011;132;48.770;9.200;2023-04-15T02:23:41;8.27;;;3.90;;
295;SDS011;132;48.770;9.200;2023-04-15T02:26:13;7.85;;;3.95;;
295;SDS011;132;48.770;9.200;2023-04-15T02:28:41;5.97;;;3.90;;
295;SDS011;132;48.770;9.200;2023-04-15T02:31:09;10.43;;;4.45;;
295;SDS011;132;48.770;9.200;2023-04-15T02:33:38;10.32;;;4.82;;
295;SDS011;132;48.770;9.200;2023-04-15T02:36:06;17.08;;;5.20;;
295;SDS011;132;48.770;9.200;2023-04-15T02:38:34;7.97;;;4.18;;
295;SDS011;132;48.770;9.200;2023-04-15T02:41:04;8.73;;;4.50;;
295;SDS011;132;48.770;9.200;2023-04-15T02:43:35;6.25;;;3.90;;
295;SDS011;132;48.770;9.200;2023-04-15T02:46:04;12.07;;;4.63;;
295;SDS011;132;48.770;9.200;2023-04-15T02:48:33;10.02;;;4.38;;
295;SDS011;132;48.770;9.200;2023-04-15T02:51:11;10.23;;;4.10;;
295;SDS011;132;48.770;9.200;2023-04-15T02:53:43;8.23;;;3.88;;
295;SDS011;132;48.770;9.200;2023-04-15T02:56:11;8.05;;;3.60;;
295;SDS011;132;48.770;9.200;2023-04-15T02:58:43;7.72;;;3.50;;
295;SDS011;132;48.770;9.200;2023-04-15T03:01:12;7.30;;;3.60;;
295;SDS011;132;48.770;9.200;2023-04-15T03:03:42;7.50;;;3.72;;
295;SDS011;132;48.770;9.200;2023-04-15T03:06:10;7.22;;;3.67;;
295;SDS011;132;48.770;9.200;2023-04-15T03:08:38;6.18;;;3.60;;
295;SDS011;132;48.770;9.200;2023-04-15T03:11:07;5.85;;;3.20;;
295;SDS011;132;48.770;9.200;2023-04-15T03:13:37;6.28;;;3.85;;
295;SDS011;132;48.770;9.200;2023-04-15T03:16:13;13.43;;;3.97;;
295;SDS011;132;48.770;9.200;2023-04-15T03:18:42;7.78;;;3.97;;
295;SDS011;132;48.770;9.200;2023-04-15T03:21:10;7.97;;;3.50;;
295;SDS011;132;48.770;9.200;2023-04-15T03:23:39;10.02;;;3.90;;
295;SDS011;132;48.770;9.200;2023-04-15T03:26:07;5.72;;;3.55;;
295;SDS011;132;48.770;9.200;2023-04-15T03:28:35;6.68;;;3.85;;
295;SDS011;132;48.770;9.200;2023-04-15T03:31:02;8.90;;;3.95;;
295;SDS011;132;48.770;9.200;2023-04-15T03:33:31;14.45;;;4.32;;
295;SDS011;132;48.770;9.200;2023-04-15T03:35:58;7.75;;;4.10;;
295;SDS011;132;48.770;9.200;2023-04-15T03:38:26;14.80;;;4.90;;
295;SDS011;132;48.770;9.200;2023-04-15T03:40:54;12.73;;;4.70;;
295;SDS011;132;48.770;9.200;2023-04-15T03:43:22;9.15;;;3.38;;
295;SDS011;132;48.770;9.200;2023-04-15T03:45:50;8.15;;;3.85;;
295;SDS011;132;48.770;9.200;2023-04-15T03:48:18;9.70;;;4.00;;
295;SDS011;132;48.770;9.200;2023-04-15T03:50:45;6.38;;;4.00;;
295;SDS011;132;48.770;9.200;2023-04-15T03:53:13;11.73;;;3.80;;
295;SDS011;132;48.770;9.200;2023-04-15T03:55:42;8.55;;;3.70;;
295;SDS011;132;48.770;9.200;2023-04-15T03:58:10;9.20;;;4.05;;
295;SDS011;132;48.770;9.200;2023-04-15T04:00:39;10.43;;;4.68;;
295;SDS011;132;48.770;9.200;2023-04-15T04:03:07;7.68;;;4.78;;
295;SDS011;132;48.770;9.200;2023-04-15T04:05:35;12.60;;;5.03;;
295;SDS011;132;48.770;9.200;2023-04-15T04:08:05;11.93;;;5.43;;
295;SDS011;132;48.770;9.200;2023-04-15T04:10:33;8.48;;;4.80;;
295;SDS011;132;48.770;9.200;2023-04-15T04:13:00;11.05;;;4.82;;
295;SDS011;132;48.770;9.200;2023-04-15T04:15:28;11.15;;;5.10;;
295;SDS011;132;48.770;9.200;2023-04-15T04:17:56;11.30;;;4.72;;
295;SDS011;132;48.770;9.200;2023-04-15T04:20:24;12.50;;;4.93;;
295;SDS011;132;48.770;9.200;2023-04-15T04:22:52;13.68;;;4.40;;
295;SDS011;132;48.770;9.200;2023-04-15T04:25:19;10.05;;;4.65;;
295;SDS011;132;48.770;9.200;2023-04-15T04:27:47;8.80;;;4.82;;
295;SDS011;132;48.770;9.200;2023-04-15T04:30:15;13.50;;;4.40;;
295;SDS011;132;48.770;9.200;2023-04-15T04:32:43;12.10;;;4.78;;
295;SDS011;132;48.770;9.200;2023-04-15T04:35:10;9.95;;;4.72;;
295;SDS011;132;48.770;9.200;2023-04-15T04:37:38;7.53;;;4.13;;
295;SDS011;132;48.770;9.200;2023-04-15T04:40:06;7.90;;;4.45;;
295;SDS011;132;48.770;9.200;2023-04-15T04:42:35;11.73;;;4.72;;
295;SDS011;132;48.770;9.200;2023-04-15T04:45:03;8.90;;;4.40;;
295;SDS011;132;48.770;9.200;2023-04-15T04:47:31;11.63;;;4.03;;
295;SDS011;132;48.770;9.200;2023-04-15T04:49:59;9.77;;;3.92;;
295;SDS011;132;48.770;9.200;2023-04-15T04:52:26;11.50;;;4.00;;
295;SDS011;132;48.770;9.200;2023-04-15T04:54:54;6.90;;;4.10;;
295;SDS011;132;48.770;9.200;2023-04-15T04:57:22;9.80;;;4.10;;
295;SDS011;132;48.770;9.200;2023-04-15T04:59:50;7.55;;;4.00;;
295;SDS011;132;48.770;9.200;2023-04-15T05:02:17;10.32;;;5.88;;
295;SDS011;132;48.770;9.200;2023-04-15T05:04:45;11.73;;;4.43;;
295;SDS011;132;48.770;9.200;2023-04-15T05:07:13;9.18;;;4.10;;
295;SDS011;132;48.770;9.200;2023-04-15T05:09:41;8.32;;;4.05;;
295;SDS011;132;48.770;9.200;2023-04-15T05:12:09;12.45;;;4.22;;
295;SDS011;132;48.770;9.200;2023-04-15T05:14:41;10.35;;;4.22;;
295;SDS011;132;48.770;9.200;2023-04-15T05:17:09;7.18;;;3.72;;
295;SDS011;132;48.770;9.200;2023-04-15T05:19:38;12.50;;;3.70;;
295;SDS011;132;48.770;9.200;2023-04-15T05:22:05;11.50;;;3.90;;
295;SDS011;132;48.770;9.200;2023-04-15T05:24:34;7.38;;;3.30;;
295;SDS011;132;48.770;9.200;2023-04-15T05:27:02;7.25;;;3.25;;
295;SDS011;132;48.770;9.200;2023-04-15T05:29:29;14.23;;;3.55;;
295;SDS011;132;48.770;9.200;2023-04-15T05:31:57;6.95;;;3.38;;
295;SDS011;132;48.770;9.200;2023-04-15T05:34:25;5.40;;;3.10;;
295;SDS011;132;48.770;9.200;2023-04-15T05:36:53;6.20;;;3.05;;
295;SDS011;132;48.770;9.200;2023-04-15T05:39:21;7.68;;;3.50;;
295;SDS011;132;48.770;9.200;2023-04-15T05:41:48;6.70;;;2.90;;
295;SDS011;132;48.770;9.200;2023-04-15T05:44:16;11.32;;;3.67;;
295;SDS011;132;48.770;9.200;2023-04-15T05:46:44;7.47;;;3.67;;
295;SDS011;132;48.770;9.200;2023-04-15T05:49:12;8.45;;;3.85;;
295;SDS011;132;48.770;9.200;2023-04-15T05:51:39;9.13;;;4.28;;
295;SDS011;132;48.770;9.200;2023-04-15T05:54:07;7.70;;;3.33;;
295;SDS011;132;48.770;9.200;2023-04-15T05:56:35;6.50;;;3.55;;
295;SDS011;132;48.770;9.200;2023-04-15T05:59:03;6.72;;;3.20;;
295;SDS011;132;48.770;9.200;2023-04-15T06:01:33;5.93;;;3.45;;
295;SDS011;132;48.770;9.200;2023-04-15T06:04:01;5.60;;;3.47;;
295;SDS011;132;48.770;9.200;2023-04-15T06:06:29;6.28;;;3.13;;
295;SDS011;132;48.770;9.200;2023-04-15T06:08:58;6.70;;;3.50;;
295;SDS011;132;48.770;9.200;2023-04-15T06:11:26;6.40;;;3.78;;
295;SDS011;132;48.770;9.200;2023-04-15T06:13:54;7.65;;;4.10;;
295;SDS011;132;48.770;9.200;2023-04-15T06:16:22;12.30;;;4.50;;
295;SDS011;132;48.770;9.200;2023-04-15T06:18:50;10.73;;;4.82;;
295;SDS011;132;48.770;9.200;2023-04-15T06:21:18;8.95;;;4.90;;
295;SDS011;132;48.770;9.200;2023-04-15T06:23:47;8.55;;;4.85;;
295;SDS011;132;48.770;9.200;2023-04-15T06:26:14;9.90;;;5.65;;
295;SDS011;132;48.770;9.200;2023-04-15T06:28:42;12.45;;;5.65;;
295;SDS011;132;48.770;9.200;2023-04-15T06:31:10;12.50;;;6.27;;
295;SDS011;132;48.770;9.200;2023-04-15T06:33:38;12.07;;;6.90;;
295;SDS011;132;48.770;9.200;2023-04-15T06:36:06;12.67;;;6.97;;
295;SDS011;132;48.770;9.200;2023-04-15T06:38:34;13.77;;;7.40;;
295;SDS011;132;48.770;9.200;2023-04-15T06:41:03;15.27;;;7.80;;
295;SDS011;132;48.770;9.200;2023-04-15T06:43:31;13.23;;;8.10;;
295;SDS011;132;48.770;9.200;2023-04-15T06:45:59;15.03;;;8.37;;
295;SDS011;132;48.770;9.200;2023-04-15T06:48:27;12.10;;;6.80;;
295;SDS011;132;48.770;9.200;2023-04-15T06:50:54;12.53;;;6.77;;
295;SDS011;132;48.770;9.200;2023-04-15T06:53:24;10.13;;;6.80;;
295;SDS011;132;48.770;9.200;2023-04-15T06:55:54;11.23;;;6.50;;
295;SDS011;132;48.770;9.200;2023-04-15T06:58:22;11.03;;;8.40;;
295;SDS011;132;48.770;9.200;2023-04-15T07:00:49;17.13;;;9.40;;
295;SDS011;132;48.770;9.200;2023-04-15T07:03:18;17.83;;;12.50;;
295;SDS011;132;48.770;9.200;2023-04-15T07:05:46;13.73;;;10.63;;
295;SDS011;132;48.770;9.200;2023-04-15T07:08:15;13.60;;;11.93;;
295;SDS011;132;48.770;9.200;2023-04-15T07:10:43;14.37;;;13.03;;
295;SDS011;132;48.770;9.200;2023-04-15T07:13:10;19.10;;;13.40;;
295;SDS011;132;48.770;9.200;2023-04-15T07:15:38;18.57;;;16.27;;
295;SDS011;132;48.770;9.200;2023-04-15T07:18:06;15.83;;;12.60;;
295;SDS011;132;48.770;9.200;2023-04-15T07:20:35;13.20;;;11.00;;
295;SDS011;132;48.770;9.200;2023-04-15T07:23:03;14.27;;;11.87;;
295;SDS011;132;48.770;9.200;2023-04-15T07:25:31;10.87;;;6.53;;
295;SDS011;132;48.770;9.200;2023-04-15T07:27:58;7.40;;;5.20;;
295;SDS011;132;48.770;9.200;2023-04-15T07:30:27;9.17;;;5.40;;
295;SDS011;132;48.770;9.200;2023-04-15T07:32:56;7.63;;;5.23;;
295;SDS011;132;48.770;9.200;2023-04-15T07:35:25;9.20;;;5.90;;
295;SDS011;132;48.770;9.200;2023-04-15T07:37:53;15.60;;;5.67;;
295;SDS011;132;48.770;9.200;2023-04-15T07:40:21;10.70;;;6.03;;
295;SDS011;132;48.770;9.200;2023-04-15T07:42:49;8.43;;;5.83;;
295;SDS011;132;48.770;9.200;2023-04-15T07:45:17;11.77;;;5.50;;
295;SDS011;132;48.770;9.200;2023-04-15T07:47:45;9.80;;;5.63;;
295;SDS011;132;48.770;9.200;2023-04-15T07:50:13;8.77;;;5.67;;
295;SDS011;132;48.770;9.200;2023-04-15T07:52:41;11.23;;;6.40;;
295;SDS011;132;48.770;9.200;2023-04-15T07:55:10;14.90;;;5.70;;
295;SDS011;132;48.770;9.200;2023-04-15T07:57:38;10.30;;;5.60;;
295;SDS011;132;48.770;9.200;2023-04-15T08:00:06;10.00;;;6.00;;
295;SDS011;132;48.770;9.200;2023-04-15T08:02:44;9.53;;;7.90;;
295;SDS011;132;48.770;9.200;2023-04-15T08:05:13;14.77;;;7.03;;
295;SDS011;132;48.770;9.200;2023-04-15T08:07:41;9.57;;;5.20;;
295;SDS011;132;48.770;9.200;2023-04-15T08:10:09;9.00;;;4.97;;
295;SDS011;132;48.770;9.200;2023-04-15T08:12:37;9.53;;;4.83;;
295;SDS011;132;48.770;9.200;2023-04-15T08:15:05;11.00;;;4.93;;
295;SDS011;132;48.770;9.200;2023-04-15T08:17:34;9.20;;;4.40;;
295;SDS011;132;48.770;9.200;2023-04-15T08:20:02;7.40;;;4.27;;
295;SDS011;132;48.770;9.200;2023-04-15T08:22:32;9.57;;;4.53;;
295;SDS011;132;48.770;9.200;2023-04-15T08:25:00;9.10;;;4.80;;
295;SDS011;132;48.770;9.200;2023-04-15T08:27:28;10.93;;;6.73;;
295;SDS011;132;48.770;9.200;2023-04-15T08:29:56;25.00;;;23.80;;
295;SDS011;132;48.770;9.200;2023-04-15T08:32:24;25.30;;;21.80;;
295;SDS011;132;48.770;9.200;2023-04-15T08:34:53;17.20;;;16.00;;
295;SDS011;132;48.770;9.200;2023-04-15T08:37:21;20.87;;;19.83;;
295;SDS011;132;48.770;9.200;2023-04-15T08:39:49;13.27;;;12.57;;
295;SDS011;132;48.770;9.200;2023-04-15T08:42:18;9.63;;;7.10;;
295;SDS011;132;48.770;9.200;2023-04-15T08:44:53;43.87;;;41.73;;
295;SDS011;132;48.770;9.200;2023-04-15T08:47:21;49.00;;;46.63;;
295;SDS011;132;48.770;9.200;2023-04-15T08:49:53;61.37;;;58.40;;
295;SDS011;132;48.770;9.200;2023-04-15T08:52:26;66.67;;;63.43;;
295;SDS011;132;48.770;9.200;2023-04-15T08:54:56;71.27;;;67.83;;
295;SDS011;132;48.770;9.200;2023-04-15T08:57:27;72.40;;;68.90;;
295;SDS011;132;48.770;9.200;2023-04-15T08:59:55;71.47;;;68.00;;
295;SDS011;132;48.770;9.200;2023-04-15T09:02:26;25.23;;;23.97;;
295;SDS011;132;48.770;9.200;2023-04-15T09:04:54;54.30;;;51.67;;
295;SDS011;132;48.770;9.200;2023-04-15T09:07:23;108.33;;;103.13;;
295;SDS011;132;48.770;9.200;2023-04-15T09:09:50;111.60;;;106.23;;
295;SDS011;132;48.770;9.200;2023-04-15T09:12:27;118.13;;;112.43;;
295;SDS011;132;48.770;9.200;2023-04-15T09:15:00;95.87;;;91.27;;
295;SDS011;132;48.770;9.200;2023-04-15T09:17:29;57.00;;;54.20;;
295;SDS011;132;48.770;9.200;2023-04-15T09:20:09;45.37;;;43.17;;
295;SDS011;132;48.770;9.200;2023-04-15T09:22:39;116.43;;;110.83;;
295;SDS011;132;48.770;9.200;2023-04-15T09:25:24;32.77;;;31.17;;
295;SDS011;132;48.770;9.200;2023-04-15T09:28:00;32.10;;;30.50;;
295;SDS011;132;48.770;9.200;2023-04-15T09:30:29;25.83;;;24.53;;
295;SDS011;132;48.770;9.200;2023-04-15T09:32:58;20.53;;;19.53;;
295;SDS011;132;48.770;9.200;2023-04-15T09:35:34;12.90;;;10.27;;
295;SDS011;132;48.770;9.200;2023-04-15T09:38:04;63.77;;;60.70;;
295;SDS011;132;48.770;9.200;2023-04-15T09:40:39;36.60;;;34.80;;
295;SDS011;132;48.770;9.200;2023-04-15T09:43:08;49.70;;;47.30;;
295;SDS011;132;48.770;9.200;2023-04-15T09:48:17;12.10;;;11.50;;
295;SDS011;132;48.770;9.200;2023-04-15T09:50:47;6.30;;;4.63;;
295;SDS011;132;48.770;9.200;2023-04-15T09:53:20;8.23;;;4.47;;
295;SDS011;132;48.770;9.200;2023-04-15T09:58:58;7.67;;;5.53;;
295;SDS011;132;48.770;9.200;2023-04-15T10:01:53;7.57;;;4.10;;
295;SDS011;132;48.770;9.200;2023-04-15T10:04:22;10.50;;;4.57;;
295;SDS011;132;48.770;9.200;2023-04-15T10:07:20;8.30;;;4.50;;
295;SDS011;132;48.770;9.200;2023-04-15T10:09:52;7.77;;;5.67;;
295;SDS011;132;48.770;9.200;2023-04-15T10:12:20;5.90;;;5.30;;
295;SDS011;132;48.770;9.200;2023-04-15T10:14:57;6.33;;;3.70;;
295;SDS011;132;48.770;9.200;2023-04-15T10:17:27;10.30;;;3.73;;
295;SDS011;132;48.770;9.200;2023-04-15T10:20:00;5.67;;;3.90;;
295;SDS011;132;48.770;9.200;2023-04-15T10:22:32;8.27;;;6.33;;
295;SDS011;132;48.770;9.200;2023-04-15T10:25:01;5.00;;;4.03;;
295;SDS011;132;48.770;9.200;2023-04-15T10:27:33;63.33;;;60.27;;
295;SDS011;132;48.770;9.200;2023-04-15T10:30:11;215.00;;;204.70;;
295;SDS011;132;48.770;9.200;2023-04-15T10:32:42;53.70;;;51.10;;
295;SDS011;132;48.770;9.200;2023-04-15T10:35:11;36.70;;;34.90;;
295;SDS011;132;48.770;9.200;2023-04-15T10:37:39;33.87;;;32.20;;
295;SDS011;132;48.770;9.200;2023-04-15T10:40:42;56.00;;;53.30;;
295;SDS011;132;48.770;9.200;2023-04-15T10:43:02;9.60;;;8.80;;
295;SDS011;132;48.770;9.200;2023-04-15T10:45:34;9.83;;;7.40;;
295;SDS011;132;48.770;9.200;2023-04-15T11:13:16;8.23;;;5.73;;
295;SDS011;132;48.770;9.200;2023-04-15T11:15:48;27.50;;;26.10;;
295;SDS011;132;48.770;9.200;2023-04-15T11:18:20;44.80;;;42.63;;
295;SDS011;132;48.770;9.200;2023-04-15T11:21:00;68.77;;;65.43;;
295;SDS011;132;48.770;9.200;2023-04-15T11:23:47;198.57;;;189.07;;
295;SDS011;132;48.770;9.200;2023-04-15T11:26:16;29.63;;;28.17;;
295;SDS011;132;48.770;9.200;2023-04-15T11:28:44;13.80;;;13.10;;
295;SDS011;132;48.770;9.200;2023-04-15T11:31:13;10.20;;;4.30;;
295;SDS011;132;48.770;9.200;2023-04-15T11:37:29;9.73;;;6.93;;
295;SDS011;132;48.770;9.200;2023-04-15T11:39:58;45.60;;;43.40;;
295;SDS011;132;48.770;9.200;2023-04-15T11:42:28;10.03;;;5.33;;
295;SDS011;132;48.770;9.200;2023-04-15T11:45:06;8.37;;;3.80;;
295;SDS011;132;48.770;9.200;2023-04-15T11:47:38;7.37;;;4.10;;
295;SDS011;132;48.770;9.200;2023-04-15T13:43:13;4.90;;;3.07;;
295;SDS011;132;48.770;9.200;2023-04-15T13:45:42;5.93;;;2.80;;
295;SDS011;132;48.770;9.200;2023-04-15T13:48:09;4.60;;;3.03;;
295;SDS011;132;48.770;9.200;2023-04-15T13:50:36;6.50;;;2.73;;
295;SDS011;132;48.770;9.200;2023-04-15T13:53:03;2.70;;;2.20;;
295;SDS011;132;48.770;9.200;2023-04-15T13:55:30;3.80;;;2.10;;
295;SDS011;132;48.770;9.200;2023-04-15T13:57:59;3.30;;;2.23;;
295;SDS011;132;48.770;9.200;2023-04-15T14:00:26;4.47;;;2.10;;
295;SDS011;132;48.770;9.200;2023-04-15T14:02:56;3.00;;;1.97;;
295;SDS011;132;48.770;9.200;2023-04-15T14:05:22;3.97;;;2.00;;
295;SDS011;132;48.770;9.200;2023-04-15T14:07:49;3.33;;;2.23;;
295;SDS011;132;48.770;9.200;2023-04-15T14:10:17;2.80;;;2.13;;
295;SDS011;132;48.770;9.200;2023-04-15T14:12:44;3.43;;;2.30;;
295;SDS011;132;48.770;9.200;2023-04-15T14:15:11;4.20;;;2.53;;
295;SDS011;132;48.770;9.200;2023-04-15T14:17:38;3.20;;;2.53;;
295;SDS011;132;48.770;9.200;2023-04-15T14:20:07;2.93;;;1.80;;
295;SDS011;132;48.770;9.200;2023-04-15T14:22:34;3.70;;;2.20;;
295;SDS011;132;48.770;9.200;2023-04-15T14:25:02;4.20;;;2.10;;
295;SDS011;132;48.770;9.200;2023-04-15T14:27:29;2.90;;;1.80;;
295;SDS011;132;48.770;9.200;2023-04-15T14:29:56;2.30;;;1.80;;
295;SDS011;132;48.770;9.200;2023-04-15T14:32:24;3.63;;;2.10;;
295;SDS011;132;48.770;9.200;2023-04-15T14:34:52;4.10;;;2.10;;
295;SDS011;132;48.770;9.200;2023-04-15T14:37:19;3.50;;;2.10;;
295;SDS011;132;48.770;9.200;2023-04-15T14:39:46;2.50;;;1.90;;
295;SDS011;132;48.770;9.200;2023-04-15T14:42:13;3.93;;;2.20;;
295;SDS011;132;48.770;9.200;2023-04-15T14:44:39;2.20;;;2.00;;
295;SDS011;132;48.770;9.200;2023-04-15T14:47:06;2.60;;;2.37;;
295;SDS011;132;48.770;9.200;2023-04-15T14:49:33;4.23;;;2.30;;
295;SDS011;132;48.770;9.200;2023-04-15T14:52:00;4.40;;;2.50;;
295;SDS011;132;48.770;9.200;2023-04-15T14:54:27;3.90;;;2.20;;
295;SDS011;132;48.770;9.200;2023-04-15T14:56:54;2.50;;;2.30;;
295;SDS011;132;48.770;9.200;2023-04-15T14:59:21;5.10;;;2.23;;
295;SDS011;132;48.770;9.200;2023-04-15T15:01:47;3.73;;;2.13;;
295;SDS011;132;48.770;9.200;2023-04-15T15:04:14;3.60;;;2.30;;
295;SDS011;132;48.770;9.200;2023-04-15T15:06:41;4.23;;;2.50;;
295;SDS011;132;48.770;9.200;2023-04-15T15:09:09;4.00;;;2.50;;
295;SDS011;132;48.770;9.200;2023-04-15T15:11:36;3.63;;;2.20;;
295;SDS011;132;48.770;9.200;2023-04-15T15:14:03;4.90;;;2.60;;
295;SDS011;132;48.770;9.200;2023-04-15T15:16:31;4.70;;;2.30;;
295;SDS011;132;48.770;9.200;2023-04-15T15:18:59;2.80;;;2.50;;
295;SDS011;132;48.770;9.200;2023-04-15T15:21:26;8.10;;;2.80;;
295;SDS011;132;48.770;9.200;2023-04-15T15:23:54;4.20;;;2.50;;
295;SDS011;132;48.770;9.200;2023-04-15T15:26:20;3.20;;;2.33;;
295;SDS011;132;48.770;9.200;2023-04-15T15:28:47;4.93;;;2.50;;
295;SDS011;132;48.770;9.200;2023-04-15T15:31:15;6.13;;;2.80;;
295;SDS011;132;48.770;9.200;2023-04-15T15:33:42;4.13;;;2.60;;
295;SDS011;132;48.770;9.200;2023-04-15T15:36:09;4.73;;;2.60;;
295;SDS011;132;48.770;9.200;2023-04-15T15:38:36;3.57;;;2.50;;
295;SDS011;132;48.770;9.200;2023-04-15T15:41:03;2.80;;;2.20;;
295;SDS011;132;48.770;9.200;2023-04-15T15:43:30;4.90;;;2.50;;
295;SDS011;132;48.770;9.200;2023-04-15T15:45:56;4.70;;;3.13;;
295;SDS011;132;48.770;9.200;2023-04-15T15:48:25;3.20;;;2.80;;
295;SDS011;132;48.770;9.200;2023-04-15T15:50:52;4.80;;;2.70;;
295;SDS011;132;48.770;9.200;2023-04-15T15:53:19;3.23;;;2.40;;
295;SDS011;132;48.770;9.200;2023-04-15T15:55:48;4.47;;;2.90;;
295;SDS011;132;48.770;9.200;2023-04-15T15:58:15;3.97;;;2.87;;
295;SDS011;132;48.770;9.200;2023-04-15T16:00:42;5.10;;;3.10;;
295;SDS011;132;48.770;9.200;2023-04-15T16:03:08;3.53;;;2.80;;
295;SDS011;132;48.770;9.200;2023-04-15T16:05:38;4.22;;;3.10;;
295;SDS011;132;48.770;9.200;2023-04-15T16:08:04;7.03;;;2.80;;
295;SDS011;132;48.770;9.200;2023-04-15T16:10:31;4.73;;;3.10;;
295;SDS011;132;48.770;9.200;2023-04-15T16:12:58;2.73;;;2.50;;
295;SDS011;132;48.770;9.200;2023-04-15T16:15:25;3.53;;;2.73;;
295;SDS011;132;48.770;9.200;2023-04-15T16:17:51;7.25;;;2.90;;
295;SDS011;132;48.770;9.200;2023-04-15T16:20:21;4.03;;;2.60;;
295;SDS011;132;48.770;9.200;2023-04-15T16:22:48;4.23;;;2.67;;
295;SDS011;132;48.770;9.200;2023-04-15T16:25:15;4.77;;;2.50;;
295;SDS011;132;48.770;9.200;2023-04-15T16:27:41;3.90;;;2.60;;
295;SDS011;132;48.770;9.200;2023-04-15T16:30:09;5.10;;;2.70;;
295;SDS011;132;48.770;9.200;2023-04-15T16:32:39;4.10;;;3.10;;
295;SDS011;132;48.770;9.200;2023-04-15T16:35:06;4.40;;;3.00;;
295;SDS011;132;48.770;9.200;2023-04-15T16:37:33;7.50;;;3.30;;
295;SDS011;132;48.770;9.200;2023-04-15T16:40:01;6.33;;;3.10;;
295;SDS011;132;48.770;9.200;2023-04-15T16:42:29;3.72;;;2.90;;
295;SDS011;132;48.770;9.200;2023-04-15T16:44:56;4.97;;;3.20;;
295;SDS011;132;48.770;9.200;2023-04-15T16:47:22;4.80;;;3.20;;
295;SDS011;132;48.770;9.200;2023-04-15T16:49:49;5.35;;;3.15;;
295;SDS011;132;48.770;9.200;2023-04-15T16:52:15;8.55;;;3.28;;
295;SDS011;132;48.770;9.200;2023-04-15T16:54:42;6.10;;;3.20;;
295;SDS011;132;48.770;9.200;2023-04-15T16:57:08;4.80;;;3.25;;
295;SDS011;132;48.770;9.200;2023-04-15T16:59:35;5.00;;;3.60;;
295;SDS011;132;48.770;9.200;2023-04-15T17:02:02;4.93;;;3.60;;
295;SDS011;132;48.770;9.200;2023-04-15T17:04:29;5.65;;;3.97;;
295;SDS011;132;48.770;9.200;2023-04-15T17:07:02;5.10;;;3.80;;
295;SDS011;132;48.770;9.200;2023-04-15T17:09:32;5.45;;;4.00;;
295;SDS011;132;48.770;9.200;2023-04-15T17:11:59;6.70;;;4.07;;
295;SDS011;132;48.770;9.200;2023-04-15T17:14:27;4.40;;;3.42;;
295;SDS011;132;48.770;9.200;2023-04-15T17:16:54;7.68;;;3.95;;
295;SDS011;132;48.770;9.200;2023-04-15T17:19:21;6.53;;;4.15;;
295;SDS011;132;48.770;9.200;2023-04-15T17:21:56;5.35;;;3.60;;
295;SDS011;132;48.770;9.200;2023-04-15T17:24:26;5.70;;;3.67;;
295;SDS011;132;48.770;9.200;2023-04-15T17:27:02;8.05;;;4.00;;
295;SDS011;132;48.770;9.200;2023-04-15T17:29:32;6.25;;;4.20;;
295;SDS011;132;48.770;9.200;2023-04-15T17:32:00;4.20;;;3.40;;
295;SDS011;132;48.770;9.200;2023-04-15T17:34:48;7.72;;;4.22;;
295;SDS011;132;48.770;9.200;2023-04-15T17:37:35;5.07;;;3.65;;
295;SDS011;132;48.770;9.200;2023-04-15T17:40:21;5.60;;;4.20;;
295;SDS011;132;48.770;9.200;2023-04-15T17:43:08;4.47;;;3.80;;
295;SDS011;132;48.770;9.200;2023-04-15T17:45:54;6.60;;;3.70;;
295;SDS011;132;48.770;9.200;2023-04-15T17:48:43;4.38;;;3.63;;
295;SDS011;132;48.770;9.200;2023-04-15T17:51:30;5.43;;;4.53;;
295;SDS011;132;48.770;9.200;2023-04-15T17:54:25;6.13;;;4.05;;
295;SDS011;132;48.770;9.200;2023-04-15T17:57:12;6.25;;;3.80;;
295;SDS011;132;48.770;9.200;2023-04-15T17:59:58;5.22;;;3.63;;
295;SDS011;132;48.770;9.200;2023-04-15T18:02:45;4.85;;;3.33;;
295;SDS011;132;48.770;9.200;2023-04-15T18:05:33;5.65;;;3.70;;
295;SDS011;132;48.770;9.200;2023-04-15T18:08:19;7.03;;;4.53;;
295;SDS011;132;48.770;9.200;2023-04-15T18:11:06;4.55;;;3.50;;
295;SDS011;132;48.770;9.200;2023-04-15T18:13:53;3.65;;;2.85;;
295;SDS011;132;48.770;9.200;2023-04-15T18:16:40;3.97;;;3.25;;
295;SDS011;132;48.770;9.200;2023-04-15T18:19:28;3.30;;;2.85;;
295;SDS011;132;48.770;9.200;2023-04-15T18:21:55;3.90;;;3.30;;